Time;durP1;ratioP1;P1;durP2;ratioP2;P2;SDS_P1;SDS_P2;PMS_P1;PMS_P2;Temp;Humidity;BMP_temperature;BMP_pressure;BME280_temperature;BME280_humidity;BME280_pressure;Samples;Min_cycle;Max_cycle;Signal;HPM_P1;HPM_P2
2023/06/04 00:00:39;;;;;;;18.45;2.50;;;38.20;24.80;;;;;;4910172;29;20047;-62
2023/06/04 00:03:05;;;;;;;22.25;2.92;;;38.20;24.70;;;;;;4913338;29;20504;-62
2023/06/04 00:05:32;;;;;;;14.27;2.45;;;38.20;25.10;;;;;;4905189;29;20397;-62
2023/06/04 00:07:59;;;;;;;15.30;3.10;;;38.10;24.80;;;;;;4904676;29;20122;-63
2023/06/04 00:10:25;;;;;;;9.32;2.80;;;38.10;24.80;;;;;;4907630;29;20035;-64
2023/06/04 00:12:51;;;;;;;11.15;2.47;;;38.10;25.30;;;;;;4911394;29;20024;-63
2023/06/04 00:15:18;;;;;;;6.95;2.25;;;38.20;25.10;;;;;;4910648;29;20106;-61
2023/06/04 00:17:44;;;;;;;12.27;2.63;;;38.10;25.80;;;;;;4910152;29;20024;-61
2023/06/04 00:20:11;;;;;;;16.95;3.10;;;38.10;25.80;;;;;;4910563;29;20524;-60
2023/06/04 00:22:38;;;;;;;8.85;2.83;;;38.00;25.20;;;;;;4906935;29;20032;-62
2023/06/04 00:25:04;;;;;;;17.48;2.67;;;37.90;25.10;;;;;;4910411;29;20427;-63
2023/06/04 00:27:31;;;;;;;13.73;3.10;;;37.80;24.90;;;;;;4907898;29;20417;-62
2023/06/04 00:29:57;;;;;;;16.15;2.40;;;37.80;25.20;;;;;;4910522;29;20136;-61
2023/06/04 00:32:24;;;;;;;10.82;2.50;;;37.70;25.40;;;;;;4910150;29;20086;-62
2023/06/04 00:34:57;;;;;;;12.35;3.03;;;37.70;26.20;;;;;;4910355;29;20032;-63
2023/06/04 00:37:25;;;;;;;17.45;3.63;;;37.60;25.50;;;;;;4906308;29;20032;-62
2023/06/04 00:39:52;;;;;;;19.05;3.05;;;37.60;25.40;;;;;;4906079;29;20025;-61
2023/06/04 00:42:18;;;;;;;8.38;2.60;;;37.50;25.40;;;;;;4909371;29;20035;-61
2023/06/04 00:44:45;;;;;;;8.02;2.03;;;37.50;25.50;;;;;;4905237;29;20043;-63
2023/06/04 00:47:16;;;;;;;9.23;2.72;;;37.40;25.10;;;;;;4907209;29;20051;-62
2023/06/04 00:49:42;;;;;;;8.90;2.83;;;37.40;25.30;;;;;;4907345;29;20036;-61
2023/06/04 00:52:10;;;;;;;8.82;2.50;;;37.40;25.50;;;;;;4907702;29;20034;-62
2023/06/04 00:54:37;;;;;;;10.40;2.53;;;37.40;25.30;;;;;;4906110;29;20024;-62
2023/06/04 00:57:05;;;;;;;10.23;2.85;;;37.30;25.60;;;;;;4908419;29;20061;-62
2023/06/04 00:59:33;;;;;;;16.30;3.08;;;37.20;25.50;;;;;;4911295;29;20020;-61
2023/06/04 01:02:09;;;;;;;13.20;3.22;;;37.10;25.80;;;;;;4907309;29;20035;-62
2023/06/04 01:05:23;;;;;;;15.77;2.40;;;37.00;26.00;;;;;;4908319;29;21349;-63
2023/06/04 01:07:52;;;;;;;8.95;2.35;;;36.90;26.20;;;;;;4886735;29;20089;-63
2023/06/04 01:10:18;;;;;;;8.63;2.70;;;36.90;25.90;;;;;;4887128;29;20045;-63
2023/06/04 01:12:45;;;;;;;14.13;2.72;;;36.80;25.90;;;;;;4886807;29;20054;-62
2023/06/04 01:15:12;;;;;;;9.57;2.58;;;36.70;25.90;;;;;;4888212;29;20032;-62
2023/06/04 01:17:41;;;;;;;14.88;3.03;;;36.70;25.70;;;;;;4891579;29;20074;-63
2023/06/04 01:20:18;;;;;;;7.60;2.63;;;36.70;25.90;;;;;;4886134;29;20025;-62
2023/06/04 01:22:56;;;;;;;13.60;2.60;;;36.70;26.30;;;;;;4884278;29;20037;-63
2023/06/04 01:25:41;;;;;;;12.05;2.00;;;36.60;27.10;;;;;;4887983;29;20058;-62
2023/06/04 01:28:12;;;;;;;20.38;2.50;;;36.50;27.00;;;;;;4886941;29;20405;-65
2023/06/04 01:30:43;;;;;;;8.35;1.83;;;36.40;27.00;;;;;;4886017;29;20060;-64
2023/06/04 01:33:19;;;;;;;10.32;1.98;;;36.30;26.70;;;;;;4887389;29;20570;-64
2023/06/04 01:35:46;;;;;;;8.73;2.15;;;36.20;26.80;;;;;;4886399;29;20104;-62
2023/06/04 01:38:12;;;;;;;9.45;3.28;;;36.20;26.90;;;;;;4884653;29;20082;-62
2023/06/04 01:40:39;;;;;;;10.63;3.25;;;36.10;26.90;;;;;;4889967;29;20096;-64
2023/06/04 01:43:05;;;;;;;14.32;4.03;;;36.20;26.30;;;;;;4886605;29;20051;-62
2023/06/04 01:45:31;;;;;;;16.83;3.03;;;36.20;26.90;;;;;;4905632;29;20120;-63
2023/06/04 01:48:00;;;;;;;16.08;2.72;;;36.00;26.30;;;;;;4909232;29;20044;-63
2023/06/04 01:50:27;;;;;;;11.60;2.63;;;35.90;26.30;;;;;;4898017;29;20039;-63
2023/06/04 01:52:54;;;;;;;19.85;5.47;;;35.80;26.50;;;;;;4903352;29;20042;-64
2023/06/04 01:55:21;;;;;;;17.70;4.93;;;35.70;26.30;;;;;;4905630;29;20524;-61
2023/06/04 01:57:50;;;;;;;20.73;4.70;;;35.60;26.60;;;;;;4907964;29;20069;-60
2023/06/04 02:00:17;;;;;;;13.32;3.17;;;35.60;26.50;;;;;;4907840;29;20040;-60
2023/06/04 02:02:48;;;;;;;18.88;4.53;;;35.60;26.50;;;;;;4909531;29;20039;-60
2023/06/04 02:05:15;;;;;;;10.40;3.20;;;35.50;26.60;;;;;;4906804;29;20048;-61
2023/06/04 02:07:44;;;;;;;16.55;5.05;;;35.40;26.40;;;;;;4905945;29;20754;-60
2023/06/04 02:10:18;;;;;;;13.45;4.68;;;35.40;26.50;;;;;;4907254;29;20102;-60
2023/06/04 02:12:57;;;;;;;26.38;4.40;;;35.40;26.60;;;;;;4906337;29;20229;-61
2023/06/04 02:15:25;;;;;;;26.77;4.03;;;35.30;26.70;;;;;;4904152;29;20105;-62
2023/06/04 02:17:59;;;;;;;22.30;3.30;;;35.10;26.50;;;;;;4907023;29;20043;-64
2023/06/04 02:20:27;;;;;;;14.02;3.58;;;35.00;26.60;;;;;;4906894;29;20153;-61
2023/06/04 02:22:55;;;;;;;11.77;3.30;;;35.00;26.60;;;;;;4907071;29;20048;-61
2023/06/04 02:25:22;;;;;;;13.68;3.28;;;34.90;26.60;;;;;;4907251;29;20568;-62
2023/06/04 02:27:48;;;;;;;20.08;4.35;;;34.80;26.80;;;;;;4904856;29;20494;-60
2023/06/04 02:30:16;;;;;;;22.98;5.10;;;34.70;26.80;;;;;;4910107;29;20093;-62
2023/06/04 02:32:44;;;;;;;21.67;5.03;;;34.60;27.00;;;;;;4909185;29;20085;-61
2023/06/04 02:35:11;;;;;;;29.40;6.15;;;34.50;27.10;;;;;;4914279;29;20079;-61
2023/06/04 02:37:37;;;;;;;25.42;6.00;;;34.50;27.20;;;;;;4908341;29;20042;-61
2023/06/04 02:40:04;;;;;;;45.65;6.22;;;34.40;27.00;;;;;;4910942;29;20173;-62
2023/06/04 02:42:30;;;;;;;23.98;6.63;;;34.30;26.90;;;;;;4911033;29;20053;-60
2023/06/04 02:44:56;;;;;;;26.52;6.40;;;34.20;26.90;;;;;;4910255;29;20062;-59
2023/06/04 02:47:23;;;;;;;21.83;5.60;;;34.10;27.10;;;;;;4908998;29;20436;-60
2023/06/04 02:49:49;;;;;;;27.95;6.22;;;34.10;27.20;;;;;;4909847;29;20078;-63
2023/06/04 02:52:15;;;;;;;31.88;6.32;;;34.00;27.40;;;;;;4903657;29;20064;-62
2023/06/04 02:54:42;;;;;;;29.95;5.88;;;33.90;27.50;;;;;;4910528;29;20119;-61
2023/06/04 02:57:08;;;;;;;35.15;6.25;;;33.80;27.60;;;;;;4912422;29;20132;-63
2023/06/04 02:59:36;;;;;;;26.88;5.68;;;33.80;27.70;;;;;;4913988;29;20047;-62
2023/06/04 03:02:03;;;;;;;31.80;5.20;;;33.70;27.80;;;;;;4909436;29;20533;-64
2023/06/04 03:04:34;;;;;;;31.08;5.28;;;33.60;27.90;;;;;;4911134;29;20297;-61
2023/06/04 03:07:02;;;;;;;32.25;4.85;;;33.60;28.00;;;;;;4909104;29;20072;-61
2023/06/04 03:09:30;;;;;;;32.92;5.38;;;33.50;28.20;;;;;;4913097;29;20428;-61
2023/06/04 03:12:03;;;;;;;27.13;5.20;;;33.40;28.20;;;;;;4911480;29;20585;-61
2023/06/04 03:14:33;;;;;;;21.83;4.63;;;33.30;28.40;;;;;;4913837;29;20133;-62
2023/06/04 03:17:07;;;;;;;31.63;5.28;;;33.30;28.70;;;;;;4909869;29;20059;-62
2023/06/04 03:19:38;;;;;;;29.08;5.78;;;33.10;28.60;;;;;;4909031;29;20071;-62
2023/06/04 03:22:05;;;;;;;23.63;4.60;;;33.10;28.80;;;;;;4910136;29;20483;-62
2023/06/04 03:24:41;;;;;;;26.70;5.25;;;33.00;28.90;;;;;;4909568;29;20075;-62
2023/06/04 03:27:10;;;;;;;39.75;6.35;;;33.00;28.90;;;;;;4909223;29;20549;-61
2023/06/04 03:29:37;;;;;;;32.63;5.25;;;32.90;29.10;;;;;;4912216;29;20063;-63
2023/06/04 03:32:04;;;;;;;32.17;4.90;;;32.80;29.10;;;;;;4909569;29;20082;-61
2023/06/04 03:34:33;;;;;;;28.55;4.45;;;32.80;29.20;;;;;;4910981;29;20504;-63
2023/06/04 03:37:00;;;;;;;38.05;4.88;;;32.70;29.10;;;;;;4906864;29;20514;-62
2023/06/04 03:39:26;;;;;;;31.55;4.28;;;32.60;29.10;;;;;;4908544;29;20095;-60
2023/06/04 03:41:54;;;;;;;27.85;4.30;;;32.60;29.30;;;;;;4908372;29;20603;-61
2023/06/04 03:44:22;;;;;;;29.98;4.95;;;32.60;29.50;;;;;;4909973;29;20443;-62
2023/06/04 03:46:48;;;;;;;42.97;4.00;;;32.50;29.70;;;;;;4910117;29;20055;-65
2023/06/04 03:49:17;;;;;;;27.63;4.32;;;32.40;29.70;;;;;;4908279;29;20169;-62
2023/06/04 03:51:43;;;;;;;30.10;4.20;;;32.40;29.80;;;;;;4909292;29;20078;-61
2023/06/04 03:54:10;;;;;;;38.58;6.35;;;32.30;29.80;;;;;;4908954;29;20067;-61
2023/06/04 03:56:36;;;;;;;40.20;5.80;;;32.30;29.90;;;;;;4909626;29;20107;-62
2023/06/04 03:59:02;;;;;;;40.05;6.68;;;32.20;30.00;;;;;;4909813;29;20061;-63
2023/06/04 04:01:29;;;;;;;34.60;6.72;;;32.10;30.00;;;;;;4910381;29;20091;-60
2023/06/04 04:03:56;;;;;;;34.47;7.13;;;32.10;30.40;;;;;;4908342;29;20398;-62
2023/06/04 04:06:22;;;;;;;31.95;6.97;;;32.00;30.40;;;;;;4906287;29;20117;-61
2023/06/04 04:08:49;;;;;;;39.13;6.38;;;32.00;30.70;;;;;;4905562;29;20101;-61
2023/06/04 04:11:16;;;;;;;43.70;7.07;;;31.90;30.90;;;;;;4908397;29;20581;-62
2023/06/04 04:13:45;;;;;;;39.42;6.55;;;31.90;31.30;;;;;;4908782;29;20081;-61
2023/06/04 04:16:11;;;;;;;29.70;5.30;;;31.80;31.70;;;;;;4909076;29;20429;-64
2023/06/04 04:18:38;;;;;;;41.03;6.15;;;31.70;32.00;;;;;;4909093;29;20067;-61
2023/06/04 04:21:05;;;;;;;27.63;6.95;;;31.70;32.40;;;;;;4906972;29;20068;-63
2023/06/04 04:23:31;;;;;;;32.38;7.03;;;31.60;33.00;;;;;;4909755;29;20069;-64
2023/06/04 04:26:02;;;;;;;31.88;6.55;;;31.60;33.10;;;;;;4909647;29;20208;-62
2023/06/04 04:28:30;;;;;;;30.73;5.28;;;31.50;33.50;;;;;;4911531;29;20103;-62
2023/06/04 04:30:56;;;;;;;38.60;11.63;;;31.40;33.60;;;;;;4909098;29;20100;-61
2023/06/04 04:33:27;;;;;;;27.00;4.60;;;31.40;33.90;;;;;;4908817;29;20065;-61
2023/06/04 04:35:53;;;;;;;25.40;5.40;;;31.40;33.90;;;;;;4908857;29;20260;-61
2023/06/04 04:38:23;;;;;;;33.17;4.95;;;31.30;34.00;;;;;;4906018;29;20130;-60
2023/06/04 04:40:51;;;;;;;37.38;4.72;;;31.20;34.80;;;;;;4909027;29;20068;-62
2023/06/04 04:43:32;;;;;;;37.97;5.10;;;31.10;35.10;;;;;;4909438;29;20254;-60
2023/06/04 04:45:59;;;;;;;33.40;4.07;;;31.00;34.80;;;;;;4908932;29;20069;-62
2023/06/04 04:48:26;;;;;;;20.00;3.58;;;30.90;35.10;;;;;;4909814;29;20425;-61
2023/06/04 04:50:53;;;;;;;28.13;3.47;;;30.90;35.60;;;;;;4906702;29;20109;-62
2023/06/04 04:53:19;;;;;;;24.00;3.85;;;30.80;35.80;;;;;;4909738;29;20061;-62
2023/06/04 04:55:46;;;;;;;28.10;3.53;;;30.70;35.90;;;;;;4908777;29;20140;-65
2023/06/04 04:58:13;;;;;;;20.25;3.75;;;30.70;36.20;;;;;;4908223;29;20531;-63
2023/06/04 05:00:39;;;;;;;23.33;3.80;;;30.60;36.20;;;;;;4908412;29;20077;-63
2023/06/04 05:03:06;;;;;;;24.38;4.20;;;30.60;36.40;;;;;;4910282;29;20066;-63
2023/06/04 05:05:33;;;;;;;22.83;3.58;;;30.50;36.50;;;;;;4909348;29;20086;-61
2023/06/04 05:07:59;;;;;;;21.13;3.50;;;30.40;36.70;;;;;;4909076;29;20440;-64
2023/06/04 05:10:26;;;;;;;24.80;4.15;;;30.30;36.90;;;;;;4908863;29;20106;-64
2023/06/04 05:12:57;;;;;;;26.30;3.40;;;30.30;36.90;;;;;;4908512;29;20072;-62
2023/06/04 05:15:24;;;;;;;21.55;3.50;;;30.30;37.10;;;;;;4906790;29;20093;-62
2023/06/04 05:17:52;;;;;;;29.40;3.78;;;30.30;37.00;;;;;;4907313;29;20582;-61
2023/06/04 05:20:20;;;;;;;24.85;4.32;;;30.30;38.50;;;;;;4907204;29;20077;-63
2023/06/04 05:22:47;;;;;;;19.10;3.83;;;30.10;38.10;;;;;;4907950;29;20532;-64
2023/06/04 05:25:14;;;;;;;14.40;3.15;;;30.00;37.30;;;;;;4906563;29;20083;-62
2023/06/04 05:27:41;;;;;;;20.23;3.20;;;29.90;37.90;;;;;;4906877;29;20157;-64
2023/06/04 05:30:08;;;;;;;12.88;2.55;;;29.80;37.70;;;;;;4908504;29;20113;-63
2023/06/04 05:32:40;;;;;;;14.95;2.85;;;29.80;37.80;;;;;;4910186;29;20102;-64
2023/06/04 05:35:07;;;;;;;10.85;2.70;;;29.80;37.90;;;;;;4909649;29;20536;-61
2023/06/04 05:37:35;;;;;;;17.20;3.10;;;29.80;37.80;;;;;;4902314;29;20124;-62
2023/06/04 05:40:02;;;;;;;13.43;2.58;;;29.80;37.70;;;;;;4906294;29;20068;-63
2023/06/04 05:42:29;;;;;;;16.92;2.83;;;29.70;37.60;;;;;;4907566;29;20396;-60
2023/06/04 05:44:55;;;;;;;13.13;2.97;;;29.80;37.50;;;;;;4907961;29;20090;-62
2023/06/04 05:47:22;;;;;;;12.80;2.78;;;29.70;38.30;;;;;;4908253;29;20080;-63
2023/06/04 05:49:48;;;;;;;27.38;10.88;;;29.70;37.70;;;;;;4910666;29;20152;-62
2023/06/04 05:52:15;;;;;;;10.68;3.33;;;29.60;38.60;;;;;;4908912;29;20100;-65
2023/06/04 05:54:41;;;;;;;16.77;3.40;;;29.60;38.70;;;;;;4908464;29;20095;-63
2023/06/04 05:57:07;;;;;;;19.23;3.80;;;29.40;38.70;;;;;;4907294;29;20455;-63
2023/06/04 05:59:35;;;;;;;14.85;3.97;;;29.30;38.30;;;;;;4911263;29;20064;-62
2023/06/04 06:02:02;;;;;;;23.63;4.82;;;29.30;38.60;;;;;;4907765;29;20093;-62
2023/06/04 06:04:28;;;;;;;16.85;4.82;;;29.30;38.70;;;;;;4906745;29;20533;-61
2023/06/04 06:06:56;;;;;;;23.70;4.50;;;29.30;39.00;;;;;;4907667;29;20075;-63
2023/06/04 06:09:22;;;;;;;15.73;4.40;;;29.20;39.10;;;;;;4908769;29;20067;-65
2023/06/04 06:11:48;;;;;;;15.55;3.78;;;29.20;39.20;;;;;;4908248;29;20087;-61
2023/06/04 06:14:15;;;;;;;17.35;4.07;;;29.10;39.00;;;;;;4909112;29;20504;-62
2023/06/04 06:16:41;;;;;;;17.85;3.75;;;29.10;39.80;;;;;;4906601;29;20069;-60
2023/06/04 06:19:08;;;;;;;13.55;3.60;;;29.00;39.90;;;;;;4907340;29;20065;-62
2023/06/04 06:21:34;;;;;;;22.17;4.00;;;29.00;40.30;;;;;;4906762;29;20070;-61
2023/06/04 06:24:00;;;;;;;21.17;3.85;;;28.80;40.80;;;;;;4907402;29;20150;-62
2023/06/04 06:26:27;;;;;;;17.83;4.00;;;28.80;41.10;;;;;;4907511;29;20154;-62
2023/06/04 06:28:53;;;;;;;24.75;4.63;;;28.70;40.60;;;;;;4906950;29;20656;-62
2023/06/04 06:31:20;;;;;;;28.77;4.65;;;28.70;40.50;;;;;;4907988;29;20470;-62
2023/06/04 06:33:46;;;;;;;31.05;4.40;;;28.60;40.80;;;;;;4907601;29;20101;-63
2023/06/04 06:36:13;;;;;;;22.55;3.83;;;28.60;40.90;;;;;;4912418;29;20070;-62
2023/06/04 06:38:40;;;;;;;23.95;4.53;;;28.60;41.00;;;;;;4900338;29;20071;-65
2023/06/04 06:41:06;;;;;;;16.85;3.30;;;28.60;40.90;;;;;;4906970;29;20099;-62
2023/06/04 06:43:33;;;;;;;25.13;4.03;;;28.60;40.90;;;;;;4905929;29;20070;-63
2023/06/04 06:45:59;;;;;;;46.97;4.55;;;28.60;41.70;;;;;;4907464;29;20458;-61
2023/06/04 06:48:26;;;;;;;233.90;11.93;;;28.50;41.40;;;;;;4908487;29;20082;-60
2023/06/04 06:50:52;;;;;;;94.03;7.70;;;28.50;41.00;;;;;;4907129;29;20081;-61
2023/06/04 06:53:18;;;;;;;45.40;5.65;;;28.60;40.90;;;;;;4908310;29;20140;-61
2023/06/04 06:55:45;;;;;;;21.45;3.92;;;28.60;40.60;;;;;;4911249;29;20084;-61
2023/06/04 06:58:11;;;;;;;25.10;6.03;;;28.50;40.40;;;;;;4908105;29;20443;-59
2023/06/04 07:00:38;;;;;;;25.88;4.40;;;28.50;40.90;;;;;;4907304;29;20075;-59
2023/06/04 07:03:04;;;;;;;26.75;4.43;;;28.50;40.90;;;;;;4908036;29;20259;-61
2023/06/04 07:05:31;;;;;;;21.17;4.50;;;28.50;41.20;;;;;;4908552;29;20650;-62
2023/06/04 07:07:58;;;;;;;26.67;4.88;;;28.50;41.40;;;;;;4908873;29;20078;-62
2023/06/04 07:10:24;;;;;;;25.92;5.10;;;28.40;41.10;;;;;;4910114;29;20101;-61
2023/06/04 07:12:51;;;;;;;29.90;5.28;;;28.40;41.30;;;;;;4909260;29;20150;-61
2023/06/04 07:15:18;;;;;;;26.63;5.97;;;28.40;41.50;;;;;;4909465;29;20150;-60
2023/06/04 07:17:45;;;;;;;30.65;5.38;;;28.30;42.20;;;;;;4908965;29;20121;-62
2023/06/04 07:20:11;;;;;;;21.70;4.97;;;28.30;41.80;;;;;;4911170;29;20654;-62
2023/06/04 07:22:38;;;;;;;18.77;5.00;;;28.30;41.90;;;;;;4913792;29;20077;-61
2023/06/04 07:25:05;;;;;;;19.45;5.35;;;28.30;41.70;;;;;;4910515;29;20089;-61
2023/06/04 07:27:33;;;;;;;19.92;4.88;;;28.30;41.80;;;;;;4911448;29;20072;-61
2023/06/04 07:30:00;;;;;;;17.80;4.97;;;28.30;41.70;;;;;;4912737;29;20143;-60
2023/06/04 07:32:26;;;;;;;22.48;6.82;;;28.30;41.50;;;;;;4912250;29;20117;-61
2023/06/04 07:34:52;;;;;;;21.10;5.20;;;28.10;41.00;;;;;;4910753;29;20537;-59
2023/06/04 07:37:19;;;;;;;22.33;4.72;;;28.10;40.90;;;;;;4907661;29;20113;-61
2023/06/04 07:39:45;;;;;;;20.77;4.60;;;28.00;40.70;;;;;;4903017;29;20070;-61
2023/06/04 07:42:13;;;;;;;24.25;5.38;;;28.00;40.60;;;;;;4909119;29;20116;-62
2023/06/04 07:44:39;;;;;;;18.83;5.03;;;28.00;40.40;;;;;;4909652;29;20631;-60
2023/06/04 07:47:06;;;;;;;21.23;5.68;;;28.00;40.90;;;;;;4910322;29;20084;-61
2023/06/04 07:49:32;;;;;;;26.83;4.85;;;27.90;41.00;;;;;;4910717;29;20113;-60
2023/06/04 07:52:00;;;;;;;25.10;4.38;;;27.90;41.00;;;;;;4909239;29;20087;-61
2023/06/04 07:54:26;;;;;;;20.02;4.95;;;27.80;41.40;;;;;;4909916;29;20134;-60
2023/06/04 07:56:55;;;;;;;13.93;3.78;;;27.80;40.90;;;;;;4912850;29;20086;-60
2023/06/04 07:59:23;;;;;;;23.92;4.38;;;27.80;40.90;;;;;;4911523;29;20071;-60
2023/06/04 08:01:52;;;;;;;19.10;4.10;;;27.80;40.80;;;;;;4908340;29;20070;-60
2023/06/04 08:04:19;;;;;;;19.35;5.00;;;27.80;40.80;;;;;;4908215;29;20157;-61
2023/06/04 08:06:46;;;;;;;27.13;4.78;;;27.80;40.60;;;;;;4908950;29;20070;-61
2023/06/04 08:09:13;;;;;;;19.75;5.05;;;27.70;40.80;;;;;;4910191;29;20070;-59
2023/06/04 08:11:42;;;;;;;14.65;4.63;;;27.70;41.40;;;;;;4909552;29;20567;-61
2023/06/04 08:14:10;;;;;;;25.60;6.68;;;27.70;41.20;;;;;;4912801;29;20192;-60
2023/06/04 08:16:36;;;;;;;20.58;5.40;;;27.70;40.90;;;;;;4909943;29;20525;-59
2023/06/04 08:19:03;;;;;;;29.80;5.43;;;27.70;40.90;;;;;;4909885;29;20098;-60
2023/06/04 08:21:29;;;;;;;31.67;5.20;;;27.70;40.60;;;;;;4910783;29;20097;-59
2023/06/04 08:23:56;;;;;;;23.70;4.45;;;27.70;40.60;;;;;;4909039;29;20069;-61
2023/06/04 08:26:23;;;;;;;23.30;4.55;;;27.70;40.50;;;;;;4912185;29;20082;-58
2023/06/04 08:28:49;;;;;;;22.65;6.55;;;27.70;40.20;;;;;;4911149;29;20081;-61
2023/06/04 08:31:16;;;;;;;15.40;4.55;;;27.60;40.10;;;;;;4909370;29;20100;-61
2023/06/04 08:33:45;;;;;;;24.98;4.65;;;27.60;39.80;;;;;;4908681;29;20195;-61
2023/06/04 08:36:11;;;;;;;20.00;5.18;;;27.50;39.10;;;;;;4907680;29;20535;-60
2023/06/04 08:38:38;;;;;;;28.60;4.63;;;27.40;38.70;;;;;;4906451;29;20434;-60
2023/06/04 08:41:31;;;;;;;24.33;5.05;;;27.50;39.20;;;;;;4904016;29;20176;-61
2023/06/04 08:43:59;;;;;;;19.58;5.32;;;27.40;39.20;;;;;;4908337;29;20524;-62
2023/06/04 08:46:28;;;;;;;21.73;4.45;;;27.30;37.90;;;;;;4910496;29;20611;-61
2023/06/04 08:49:01;;;;;;;14.00;4.90;;;27.30;39.10;;;;;;4911925;29;20089;-64
2023/06/04 08:51:28;;;;;;;85.07;8.13;;;27.30;38.50;;;;;;4926864;29;20072;-67
2023/06/04 08:53:57;;;;;;;32.60;5.82;;;27.30;38.70;;;;;;4908888;29;20184;-63
2023/06/04 08:56:23;;;;;;;18.50;5.55;;;27.30;39.10;;;;;;4909607;29;20086;-68
2023/06/04 08:58:53;;;;;;;36.80;6.40;;;27.40;38.50;;;;;;4909238;29;20086;-64
2023/06/04 09:01:20;;;;;;;33.55;5.57;;;27.40;38.60;;;;;;4909157;29;20515;-64
2023/06/04 09:03:47;;;;;;;35.28;6.15;;;27.40;38.40;;;;;;4912061;29;20066;-65
2023/06/04 09:06:15;;;;;;;22.65;4.35;;;27.30;38.50;;;;;;4910498;29;20082;-64
2023/06/04 09:08:45;;;;;;;25.20;7.63;;;27.30;38.70;;;;;;4908280;29;20089;-64
2023/06/04 09:11:15;;;;;;;27.38;6.72;;;27.30;39.30;;;;;;4909354;29;20080;-60
2023/06/04 09:13:46;;;;;;;15.80;4.68;;;27.30;39.50;;;;;;4909013;29;20471;-62
2023/06/04 09:16:13;;;;;;;17.55;4.45;;;27.10;39.60;;;;;;4909438;29;20122;-59
2023/06/04 09:18:40;;;;;;;13.30;3.97;;;27.10;39.30;;;;;;4907168;29;20158;-60
2023/06/04 09:21:08;;;;;;;22.42;4.75;;;27.10;40.50;;;;;;4908929;29;20493;-62
2023/06/04 09:23:40;;;;;;;15.55;4.60;;;27.10;40.80;;;;;;4908129;29;20100;-61
2023/06/04 09:26:09;;;;;;;16.33;3.95;;;27.10;40.90;;;;;;4907845;29;20139;-61
2023/06/04 09:28:36;;;;;;;20.45;5.10;;;27.10;42.70;;;;;;4907982;29;20065;-60
2023/06/04 09:31:03;;;;;;;23.98;4.78;;;27.00;42.90;;;;;;4907888;29;20072;-61
2023/06/04 09:33:29;;;;;;;22.08;5.47;;;27.00;44.00;;;;;;4911486;29;20068;-61
2023/06/04 09:35:59;;;;;;;40.90;6.80;;;27.00;44.70;;;;;;4909500;29;20220;-61
2023/06/04 09:38:38;;;;;;;22.77;5.15;;;27.10;45.90;;;;;;4906742;29;20560;-60
2023/06/04 09:41:10;;;;;;;29.85;5.13;;;27.00;46.80;;;;;;4905803;29;20077;-62
2023/06/04 09:43:37;;;;;;;32.55;5.80;;;26.90;46.80;;;;;;4907614;29;20139;-62
2023/06/04 09:46:14;;;;;;;25.25;6.10;;;26.90;47.10;;;;;;4908662;29;20085;-60
2023/06/04 09:48:42;;;;;;;24.27;4.68;;;26.90;47.50;;;;;;4904785;29;20075;-58
2023/06/04 09:51:19;;;;;;;27.83;4.90;;;26.70;47.70;;;;;;4905412;29;20142;-59
2023/06/04 09:53:56;;;;;;;23.65;4.97;;;26.80;48.10;;;;;;4907872;29;20071;-61
2023/06/04 09:56:26;;;;;;;22.08;3.78;;;26.70;48.20;;;;;;4905603;29;20501;-61
2023/06/04 09:59:02;;;;;;;31.35;4.50;;;26.60;48.50;;;;;;4901038;29;20436;-61
2023/06/04 10:01:30;;;;;;;30.00;5.15;;;26.60;49.50;;;;;;4905931;29;20158;-61
2023/06/04 10:04:02;;;;;;;23.05;4.13;;;26.50;49.70;;;;;;4907753;29;20174;-62
2023/06/04 10:06:33;;;;;;;25.38;4.30;;;26.50;50.30;;;;;;4907039;29;20068;-62
2023/06/04 10:09:05;;;;;;;23.75;3.95;;;26.30;50.20;;;;;;4908105;29;20084;-61
2023/06/04 10:11:55;;;;;;;18.75;4.07;;;26.30;50.10;;;;;;4906626;29;20080;-61
2023/06/04 10:14:31;;;;;;;14.20;4.03;;;26.30;50.00;;;;;;4905512;29;20108;-60
2023/06/04 10:16:58;;;;;;;28.30;4.32;;;26.20;51.00;;;;;;4907836;29;20072;-61
2023/06/04 10:19:25;;;;;;;19.88;4.43;;;26.10;51.20;;;;;;4908271;29;20545;-61
2023/06/04 10:21:53;;;;;;;32.60;4.65;;;26.10;51.30;;;;;;4909941;29;20103;-61
2023/06/04 10:24:20;;;;;;;16.17;4.10;;;26.00;50.50;;;;;;4907839;29;20068;-62
2023/06/04 10:26:48;;;;;;;28.42;4.05;;;26.00;50.40;;;;;;4906869;29;20071;-62
2023/06/04 10:29:15;;;;;;;17.45;4.53;;;26.00;50.70;;;;;;4907575;29;20082;-60
2023/06/04 10:31:42;;;;;;;19.23;4.10;;;25.90;51.00;;;;;;4906895;29;20138;-61
2023/06/04 10:34:09;;;;;;;16.73;3.72;;;25.80;51.00;;;;;;4907269;29;20099;-63
2023/06/04 10:36:44;;;;;;;24.50;4.20;;;25.80;51.30;;;;;;4906121;29;20075;-61
2023/06/04 10:39:10;;;;;;;19.23;3.78;;;25.80;51.30;;;;;;4906050;29;20068;-62
2023/06/04 10:41:37;;;;;;;28.90;3.97;;;25.80;51.40;;;;;;4906454;29;20070;-63
2023/06/04 10:44:04;;;;;;;21.70;4.40;;;25.70;51.60;;;;;;4907370;29;20075;-62
2023/06/04 10:46:41;;;;;;;24.75;4.88;;;25.70;51.90;;;;;;4905911;29;20076;-62
2023/06/04 10:49:14;;;;;;;25.08;4.85;;;25.60;52.70;;;;;;4906882;29;20083;-61
2023/06/04 10:51:40;;;;;;;33.75;5.97;;;25.60;52.20;;;;;;4906803;29;20123;-63
2023/06/04 10:54:07;;;;;;;28.00;4.95;;;25.50;52.10;;;;;;4907116;29;20102;-61
2023/06/04 10:56:35;;;;;;;34.33;5.93;;;25.50;52.50;;;;;;4911625;29;20462;-64
2023/06/04 10:59:12;;;;;;;40.17;5.68;;;25.40;52.50;;;;;;4911775;29;20068;-63
2023/06/04 11:01:39;;;;;;;32.13;5.20;;;25.40;52.60;;;;;;4910112;29;20123;-64
2023/06/04 11:04:06;;;;;;;34.35;5.57;;;25.40;52.80;;;;;;4909384;29;20072;-63
2023/06/04 11:06:32;;;;;;;35.30;5.45;;;25.40;53.20;;;;;;4910222;29;20068;-63
2023/06/04 11:09:06;;;;;;;43.22;7.28;;;25.30;53.80;;;;;;4909996;29;20561;-62
2023/06/04 11:11:32;;;;;;;37.55;6.50;;;25.20;54.30;;;;;;4912648;29;20090;-61
2023/06/04 11:14:15;;;;;;;33.05;5.88;;;25.20;54.70;;;;;;4910290;29;20136;-61
2023/06/04 11:16:42;;;;;;;45.63;6.90;;;25.20;55.70;;;;;;4909782;29;20428;-64
2023/06/04 11:19:08;;;;;;;25.65;6.57;;;25.10;55.50;;;;;;4910751;29;20159;-62
2023/06/04 11:21:38;;;;;;;27.10;5.97;;;25.10;55.80;;;;;;4908333;29;20440;-61
2023/06/04 11:24:05;;;;;;;29.30;7.35;;;25.00;56.00;;;;;;4910508;29;20166;-61
2023/06/04 11:26:33;;;;;;;32.63;7.25;;;25.00;56.30;;;;;;4910312;29;20158;-60
2023/06/04 11:29:00;;;;;;;29.30;6.65;;;25.00;56.30;;;;;;4908013;29;20478;-61
2023/06/04 11:31:27;;;;;;;32.03;7.03;;;24.90;56.30;;;;;;4907811;29;20164;-61
2023/06/04 11:33:53;;;;;;;35.15;6.20;;;25.00;56.40;;;;;;4907464;29;20118;-61
2023/06/04 11:36:27;;;;;;;48.67;17.98;;;24.90;56.50;;;;;;4909164;29;20554;-62
2023/06/04 11:39:02;;;;;;;35.45;5.90;;;24.90;56.70;;;;;;4907676;29;20079;-61
2023/06/04 11:41:36;;;;;;;30.98;5.82;;;24.80;56.70;;;;;;4910876;29;20078;-61
2023/06/04 11:44:06;;;;;;;27.95;5.53;;;24.70;56.90;;;;;;4909164;29;20535;-61
2023/06/04 11:46:33;;;;;;;37.78;6.50;;;24.60;57.20;;;;;;4909266;29;20589;-61
2023/06/04 11:49:00;;;;;;;27.35;6.57;;;24.60;57.40;;;;;;4907088;29;20440;-62
2023/06/04 11:51:27;;;;;;;27.08;6.32;;;24.50;57.50;;;;;;4910090;29;20608;-62
2023/06/04 11:53:54;;;;;;;30.13;6.60;;;24.50;57.60;;;;;;4907906;29;20074;-61
2023/06/04 11:56:24;;;;;;;32.05;6.60;;;24.50;57.70;;;;;;4911785;29;20504;-61
2023/06/04 11:58:50;;;;;;;35.53;8.30;;;24.40;57.90;;;;;;4908403;29;20082;-62
2023/06/04 12:01:17;;;;;;;29.15;8.23;;;24.40;58.10;;;;;;4908513;29;20086;-61
2023/06/04 12:03:43;;;;;;;44.78;8.27;;;24.40;58.20;;;;;;4909084;29;20155;-61
2023/06/04 12:06:13;;;;;;;36.33;6.60;;;24.30;58.40;;;;;;4908775;29;20131;-58
2023/06/04 12:08:49;;;;;;;30.45;6.28;;;24.30;58.60;;;;;;4910189;29;20516;-62
2023/06/04 12:11:33;;;;;;;24.38;6.15;;;24.30;58.70;;;;;;4908624;29;20142;-62
2023/06/04 12:14:07;;;;;;;25.13;5.38;;;24.20;58.60;;;;;;4907267;29;20072;-61
2023/06/04 12:16:36;;;;;;;26.85;5.82;;;24.30;58.60;;;;;;4906444;29;20067;-61
2023/06/04 12:19:10;;;;;;;27.80;5.65;;;24.20;58.30;;;;;;4899643;29;20473;-62
2023/06/04 12:21:38;;;;;;;23.27;5.68;;;24.30;58.40;;;;;;4908639;29;20496;-60
2023/06/04 12:24:14;;;;;;;26.88;6.18;;;24.20;59.00;;;;;;4910421;29;20130;-62
2023/06/04 12:26:43;;;;;;;34.47;6.00;;;24.10;58.50;;;;;;4910594;29;20068;-61
2023/06/04 12:29:12;;;;;;;16.85;4.20;;;24.20;58.70;;;;;;4908965;29;20079;-61
2023/06/04 12:31:40;;;;;;;16.88;4.97;;;24.20;58.70;;;;;;4911315;29;20114;-62
2023/06/04 12:34:07;;;;;;;19.35;4.22;;;24.20;58.80;;;;;;4908137;29;20075;-62
2023/06/04 12:36:34;;;;;;;28.25;6.40;;;24.20;58.70;;;;;;4908447;29;20577;-60
2023/06/04 12:39:03;;;;;;;23.58;5.95;;;24.20;58.70;;;;;;4907720;29;20159;-62
2023/06/04 12:41:30;;;;;;;32.17;6.30;;;24.10;58.60;;;;;;4912078;29;20076;-61
2023/06/04 12:43:57;;;;;;;24.17;5.88;;;24.10;58.60;;;;;;4908851;29;20072;-62